sensor_id;sensor_type;location;lat;lon;timestamp;P1;durP1;ratioP1;P2;durP2;ratioP2
68188;SDS011;55008;47.514;19.218;2022-11-20T00:01:50;29.45;;;15.55;;
68188;SDS011;55008;47.514;19.218;2022-11-20T00:04:19;28.38;;;14.23;;
68188;SDS011;55008;47.514;19.218;2022-11-20T00:06:47;30.50;;;15.00;;
68188;SDS011;55008;47.514;19.218;2022-11-20T00:09:16;31.77;;;16.20;;
68188;SDS011;55008;47.514;19.218;2022-11-20T00:11:46;28.35;;;15.45;;
68188;SDS011;55008;47.514;19.218;2022-11-20T00:14:15;28.35;;;14.32;;
68188;SDS011;55008;47.514;19.218;2022-11-20T00:16:43;29.95;;;15.95;;
68188;SDS011;55008;47.514;19.218;2022-11-20T00:19:16;30.35;;;15.30;;
68188;SDS011;55008;47.514;19.218;2022-11-20T00:21:45;29.45;;;14.70;;
68188;SDS011;55008;47.514;19.218;2022-11-20T00:24:18;30.83;;;15.85;;
68188;SDS011;55008;47.514;19.218;2022-11-20T00:26:46;30.88;;;15.35;;
68188;SDS011;55008;47.514;19.218;2022-11-20T00:29:14;29.30;;;15.60;;
68188;SDS011;55008;47.514;19.218;2022-11-20T00:31:46;31.15;;;15.70;;
68188;SDS011;55008;47.514;19.218;2022-11-20T00:34:16;33.70;;;16.27;;
68188;SDS011;55008;47.514;19.218;2022-11-20T00:36:45;32.60;;;16.48;;
68188;SDS011;55008;47.514;19.218;2022-11-20T00:39:16;32.22;;;15.23;;
68188;SDS011;55008;47.514;19.218;2022-11-20T00:41:45;32.63;;;15.80;;
68188;SDS011;55008;47.514;19.218;2022-11-20T00:44:13;32.33;;;16.98;;
68188;SDS011;55008;47.514;19.218;2022-11-20T00:46:41;34.08;;;16.80;;
68188;SDS011;55008;47.514;19.218;2022-11-20T00:49:10;31.48;;;16.75;;
68188;SDS011;55008;47.514;19.218;2022-11-20T00:51:39;32.00;;;16.27;;
68188;SDS011;55008;47.514;19.218;2022-11-20T00:54:08;33.72;;;17.05;;
68188;SDS011;55008;47.514;19.218;2022-11-20T00:56:36;31.23;;;16.63;;
68188;SDS011;55008;47.514;19.218;2022-11-20T00:59:08;35.13;;;17.77;;
68188;SDS011;55008;47.514;19.218;2022-11-20T01:01:36;37.40;;;17.90;;
68188;SDS011;55008;47.514;19.218;2022-11-20T01:04:05;34.08;;;17.27;;
68188;SDS011;55008;47.514;19.218;2022-11-20T01:06:34;39.08;;;20.25;;
68188;SDS011;55008;47.514;19.218;2022-11-20T01:09:09;38.53;;;18.80;;
68188;SDS011;55008;47.514;19.218;2022-11-20T01:11:40;37.10;;;17.83;;
68188;SDS011;55008;47.514;19.218;2022-11-20T01:14:12;40.83;;;19.40;;
68188;SDS011;55008;47.514;19.218;2022-11-20T01:19:15;42.58;;;19.70;;
68188;SDS011;55008;47.514;19.218;2022-11-20T01:21:47;43.00;;;20.10;;
68188;SDS011;55008;47.514;19.218;2022-11-20T01:24:20;49.80;;;22.40;;
68188;SDS011;55008;47.514;19.218;2022-11-20T01:26:50;52.13;;;23.02;;
68188;SDS011;55008;47.514;19.218;2022-11-20T01:29:20;50.40;;;22.25;;
68188;SDS011;55008;47.514;19.218;2022-11-20T01:31:50;53.72;;;24.88;;
68188;SDS011;55008;47.514;19.218;2022-11-20T01:34:19;51.08;;;23.70;;
68188;SDS011;55008;47.514;19.218;2022-11-20T01:36:49;57.78;;;25.55;;
68188;SDS011;55008;47.514;19.218;2022-11-20T01:39:18;56.85;;;23.35;;
68188;SDS011;55008;47.514;19.218;2022-11-20T01:41:52;58.20;;;25.67;;
68188;SDS011;55008;47.514;19.218;2022-11-20T01:44:47;59.28;;;26.33;;
68188;SDS011;55008;47.514;19.218;2022-11-20T01:47:20;59.83;;;24.55;;
68188;SDS011;55008;47.514;19.218;2022-11-20T01:49:52;59.55;;;26.20;;
68188;SDS011;55008;47.514;19.218;2022-11-20T01:52:24;62.63;;;25.58;;
68188;SDS011;55008;47.514;19.218;2022-11-20T01:55:00;73.45;;;26.25;;
68188;SDS011;55008;47.514;19.218;2022-11-20T01:57:31;63.45;;;26.23;;
68188;SDS011;55008;47.514;19.218;2022-11-20T02:00:04;67.47;;;27.27;;
68188;SDS011;55008;47.514;19.218;2022-11-20T02:02:36;63.53;;;26.90;;
68188;SDS011;55008;47.514;19.218;2022-11-20T02:05:09;61.17;;;26.17;;
68188;SDS011;55008;47.514;19.218;2022-11-20T02:07:42;60.03;;;25.77;;
68188;SDS011;55008;47.514;19.218;2022-11-20T02:10:15;63.95;;;27.48;;
68188;SDS011;55008;47.514;19.218;2022-11-20T02:12:43;62.72;;;25.83;;
68188;SDS011;55008;47.514;19.218;2022-11-20T02:15:29;63.15;;;26.00;;
68188;SDS011;55008;47.514;19.218;2022-11-20T02:17:58;65.28;;;26.90;;
68188;SDS011;55008;47.514;19.218;2022-11-20T02:20:27;61.25;;;26.92;;
68188;SDS011;55008;47.514;19.218;2022-11-20T02:22:56;64.03;;;26.88;;
68188;SDS011;55008;47.514;19.218;2022-11-20T02:25:31;62.65;;;26.42;;
68188;SDS011;55008;47.514;19.218;2022-11-20T02:28:04;67.20;;;27.52;;
68188;SDS011;55008;47.514;19.218;2022-11-20T02:30:34;63.33;;;27.30;;
68188;SDS011;55008;47.514;19.218;2022-11-20T02:33:03;65.35;;;27.25;;
68188;SDS011;55008;47.514;19.218;2022-11-20T02:35:41;65.60;;;27.77;;
68188;SDS011;55008;47.514;19.218;2022-11-20T02:38:12;64.55;;;26.42;;
68188;SDS011;55008;47.514;19.218;2022-11-20T02:40:44;68.57;;;27.23;;
68188;SDS011;55008;47.514;19.218;2022-11-20T02:43:20;62.55;;;27.80;;
68188;SDS011;55008;47.514;19.218;2022-11-20T02:45:51;62.03;;;27.60;;
68188;SDS011;55008;47.514;19.218;2022-11-20T02:48:20;61.63;;;28.33;;
68188;SDS011;55008;47.514;19.218;2022-11-20T02:50:50;65.97;;;27.45;;
68188;SDS011;55008;47.514;19.218;2022-11-20T02:53:20;62.47;;;27.88;;
68188;SDS011;55008;47.514;19.218;2022-11-20T02:55:57;59.27;;;27.37;;
68188;SDS011;55008;47.514;19.218;2022-11-20T02:58:26;60.55;;;27.88;;
68188;SDS011;55008;47.514;19.218;2022-11-20T03:00:54;61.00;;;27.85;;
68188;SDS011;55008;47.514;19.218;2022-11-20T03:03:22;61.60;;;26.55;;
68188;SDS011;55008;47.514;19.218;2022-11-20T03:05:51;57.50;;;27.92;;
68188;SDS011;55008;47.514;19.218;2022-11-20T03:08:20;57.13;;;26.25;;
68188;SDS011;55008;47.514;19.218;2022-11-20T03:10:48;57.47;;;26.25;;
68188;SDS011;55008;47.514;19.218;2022-11-20T03:13:18;58.20;;;26.63;;
68188;SDS011;55008;47.514;19.218;2022-11-20T03:15:47;56.25;;;26.92;;
68188;SDS011;55008;47.514;19.218;2022-11-20T03:18:15;53.60;;;25.83;;
68188;SDS011;55008;47.514;19.218;2022-11-20T03:20:44;53.83;;;24.10;;
68188;SDS011;55008;47.514;19.218;2022-11-20T03:23:12;55.88;;;25.30;;
68188;SDS011;55008;47.514;19.218;2022-11-20T03:25:41;54.90;;;25.05;;
68188;SDS011;55008;47.514;19.218;2022-11-20T03:28:09;57.13;;;26.05;;
68188;SDS011;55008;47.514;19.218;2022-11-20T03:30:39;56.15;;;26.25;;
68188;SDS011;55008;47.514;19.218;2022-11-20T03:33:07;54.67;;;25.25;;
68188;SDS011;55008;47.514;19.218;2022-11-20T03:35:35;52.35;;;25.60;;
68188;SDS011;55008;47.514;19.218;2022-11-20T03:38:04;53.03;;;25.98;;
68188;SDS011;55008;47.514;19.218;2022-11-20T03:40:33;53.00;;;26.48;;
68188;SDS011;55008;47.514;19.218;2022-11-20T03:43:02;52.38;;;25.02;;
68188;SDS011;55008;47.514;19.218;2022-11-20T03:45:31;49.97;;;25.10;;
68188;SDS011;55008;47.514;19.218;2022-11-20T03:48:01;51.03;;;24.90;;
68188;SDS011;55008;47.514;19.218;2022-11-20T03:50:31;51.10;;;24.55;;
68188;SDS011;55008;47.514;19.218;2022-11-20T03:53:00;49.40;;;25.48;;
68188;SDS011;55008;47.514;19.218;2022-11-20T03:55:28;53.17;;;24.65;;
68188;SDS011;55008;47.514;19.218;2022-11-20T03:57:56;50.28;;;25.48;;
68188;SDS011;55008;47.514;19.218;2022-11-20T04:00:25;51.50;;;24.85;;
68188;SDS011;55008;47.514;19.218;2022-11-20T04:02:57;54.47;;;25.58;;
68188;SDS011;55008;47.514;19.218;2022-11-20T04:05:29;54.33;;;26.15;;
68188;SDS011;55008;47.514;19.218;2022-11-20T04:07:58;56.28;;;25.27;;
68188;SDS011;55008;47.514;19.218;2022-11-20T04:10:26;50.10;;;24.25;;
68188;SDS011;55008;47.514;19.218;2022-11-20T04:12:55;59.00;;;27.08;;
68188;SDS011;55008;47.514;19.218;2022-11-20T04:15:23;55.92;;;26.52;;
68188;SDS011;55008;47.514;19.218;2022-11-20T04:17:51;55.63;;;26.38;;
68188;SDS011;55008;47.514;19.218;2022-11-20T04:20:21;53.30;;;26.50;;
68188;SDS011;55008;47.514;19.218;2022-11-20T04:22:54;59.40;;;27.17;;
68188;SDS011;55008;47.514;19.218;2022-11-20T04:25:23;53.63;;;25.80;;
68188;SDS011;55008;47.514;19.218;2022-11-20T04:27:51;56.90;;;26.02;;
68188;SDS011;55008;47.514;19.218;2022-11-20T04:30:20;53.92;;;24.80;;
68188;SDS011;55008;47.514;19.218;2022-11-20T04:32:50;54.13;;;24.70;;
68188;SDS011;55008;47.514;19.218;2022-11-20T04:35:19;55.28;;;25.25;;
68188;SDS011;55008;47.514;19.218;2022-11-20T04:37:50;57.08;;;26.67;;
68188;SDS011;55008;47.514;19.218;2022-11-20T04:40:22;55.30;;;26.17;;
68188;SDS011;55008;47.514;19.218;2022-11-20T04:42:51;52.60;;;25.33;;
68188;SDS011;55008;47.514;19.218;2022-11-20T04:45:20;53.53;;;25.65;;
68188;SDS011;55008;47.514;19.218;2022-11-20T04:47:50;52.30;;;25.85;;
68188;SDS011;55008;47.514;19.218;2022-11-20T04:50:19;51.53;;;25.73;;
68188;SDS011;55008;47.514;19.218;2022-11-20T04:52:48;51.28;;;25.65;;
68188;SDS011;55008;47.514;19.218;2022-11-20T04:55:16;54.35;;;25.48;;
68188;SDS011;55008;47.514;19.218;2022-11-20T04:57:48;53.40;;;25.05;;
68188;SDS011;55008;47.514;19.218;2022-11-20T05:00:18;52.63;;;25.25;;
68188;SDS011;55008;47.514;19.218;2022-11-20T05:02:47;55.22;;;25.80;;
68188;SDS011;55008;47.514;19.218;2022-11-20T05:05:15;55.53;;;26.55;;
68188;SDS011;55008;47.514;19.218;2022-11-20T05:07:44;52.38;;;25.30;;
68188;SDS011;55008;47.514;19.218;2022-11-20T05:10:13;52.67;;;26.52;;
68188;SDS011;55008;47.514;19.218;2022-11-20T05:12:41;51.70;;;25.13;;
68188;SDS011;55008;47.514;19.218;2022-11-20T05:15:12;54.92;;;25.02;;
68188;SDS011;55008;47.514;19.218;2022-11-20T05:17:40;52.42;;;26.02;;
68188;SDS011;55008;47.514;19.218;2022-11-20T05:20:09;49.78;;;24.90;;
68188;SDS011;55008;47.514;19.218;2022-11-20T05:22:38;53.72;;;26.70;;
68188;SDS011;55008;47.514;19.218;2022-11-20T05:25:07;51.70;;;26.25;;
68188;SDS011;55008;47.514;19.218;2022-11-20T05:27:37;50.65;;;25.15;;
68188;SDS011;55008;47.514;19.218;2022-11-20T05:30:06;55.38;;;27.30;;
68188;SDS011;55008;47.514;19.218;2022-11-20T05:32:36;53.00;;;25.83;;
68188;SDS011;55008;47.514;19.218;2022-11-20T05:35:07;51.13;;;26.63;;
68188;SDS011;55008;47.514;19.218;2022-11-20T05:37:36;50.33;;;24.90;;
68188;SDS011;55008;47.514;19.218;2022-11-20T05:40:04;52.03;;;26.35;;
68188;SDS011;55008;47.514;19.218;2022-11-20T05:42:37;52.90;;;24.95;;
68188;SDS011;55008;47.514;19.218;2022-11-20T05:45:06;52.92;;;27.02;;
68188;SDS011;55008;47.514;19.218;2022-11-20T05:47:36;53.33;;;25.75;;
68188;SDS011;55008;47.514;19.218;2022-11-20T05:50:05;50.85;;;26.25;;
68188;SDS011;55008;47.514;19.218;2022-11-20T05:52:34;51.15;;;24.00;;
68188;SDS011;55008;47.514;19.218;2022-11-20T05:55:02;51.88;;;26.08;;
68188;SDS011;55008;47.514;19.218;2022-11-20T05:57:31;51.67;;;24.05;;
68188;SDS011;55008;47.514;19.218;2022-11-20T06:00:00;51.85;;;25.15;;
68188;SDS011;55008;47.514;19.218;2022-11-20T06:02:30;51.75;;;25.23;;
68188;SDS011;55008;47.514;19.218;2022-11-20T06:05:03;54.50;;;26.40;;
68188;SDS011;55008;47.514;19.218;2022-11-20T06:07:32;50.38;;;25.67;;
68188;SDS011;55008;47.514;19.218;2022-11-20T06:10:00;55.53;;;26.33;;
68188;SDS011;55008;47.514;19.218;2022-11-20T06:12:31;53.00;;;25.70;;
68188;SDS011;55008;47.514;19.218;2022-11-20T06:15:00;56.70;;;28.10;;
68188;SDS011;55008;47.514;19.218;2022-11-20T06:17:28;53.50;;;27.08;;
68188;SDS011;55008;47.514;19.218;2022-11-20T06:19:57;54.03;;;25.90;;
68188;SDS011;55008;47.514;19.218;2022-11-20T06:22:26;51.58;;;25.23;;
68188;SDS011;55008;47.514;19.218;2022-11-20T06:24:56;53.55;;;26.63;;
68188;SDS011;55008;47.514;19.218;2022-11-20T06:27:26;53.22;;;27.00;;
68188;SDS011;55008;47.514;19.218;2022-11-20T06:29:54;56.15;;;26.98;;
68188;SDS011;55008;47.514;19.218;2022-11-20T06:32:23;52.80;;;27.83;;
68188;SDS011;55008;47.514;19.218;2022-11-20T06:34:53;56.47;;;26.40;;
68188;SDS011;55008;47.514;19.218;2022-11-20T06:37:23;54.63;;;26.45;;
68188;SDS011;55008;47.514;19.218;2022-11-20T06:39:52;53.33;;;27.23;;
68188;SDS011;55008;47.514;19.218;2022-11-20T06:42:21;57.22;;;27.30;;
68188;SDS011;55008;47.514;19.218;2022-11-20T06:44:50;56.28;;;27.50;;
68188;SDS011;55008;47.514;19.218;2022-11-20T06:47:18;57.22;;;27.38;;
68188;SDS011;55008;47.514;19.218;2022-11-20T06:49:47;54.63;;;26.70;;
68188;SDS011;55008;47.514;19.218;2022-11-20T06:52:17;53.00;;;27.63;;
68188;SDS011;55008;47.514;19.218;2022-11-20T06:54:45;56.80;;;27.38;;
68188;SDS011;55008;47.514;19.218;2022-11-20T06:57:15;53.97;;;27.02;;
68188;SDS011;55008;47.514;19.218;2022-11-20T06:59:44;53.87;;;26.17;;
68188;SDS011;55008;47.514;19.218;2022-11-20T07:02:13;57.78;;;27.15;;
68188;SDS011;55008;47.514;19.218;2022-11-20T07:04:41;56.30;;;28.50;;
68188;SDS011;55008;47.514;19.218;2022-11-20T07:07:09;61.45;;;28.35;;
68188;SDS011;55008;47.514;19.218;2022-11-20T07:09:38;53.20;;;27.42;;
68188;SDS011;55008;47.514;19.218;2022-11-20T07:12:07;55.05;;;28.63;;
68188;SDS011;55008;47.514;19.218;2022-11-20T07:14:37;54.38;;;27.25;;
68188;SDS011;55008;47.514;19.218;2022-11-20T07:17:06;59.65;;;28.27;;
68188;SDS011;55008;47.514;19.218;2022-11-20T07:19:35;56.78;;;29.02;;
68188;SDS011;55008;47.514;19.218;2022-11-20T07:22:03;56.45;;;28.15;;
68188;SDS011;55008;47.514;19.218;2022-11-20T07:24:33;55.13;;;27.33;;
68188;SDS011;55008;47.514;19.218;2022-11-20T07:27:10;52.20;;;26.75;;
68188;SDS011;55008;47.514;19.218;2022-11-20T07:29:40;54.65;;;27.17;;
68188;SDS011;55008;47.514;19.218;2022-11-20T07:32:09;53.47;;;27.48;;
68188;SDS011;55008;47.514;19.218;2022-11-20T07:34:38;58.15;;;28.42;;
68188;SDS011;55008;47.514;19.218;2022-11-20T07:37:08;55.75;;;28.48;;
68188;SDS011;55008;47.514;19.218;2022-11-20T07:39:36;57.13;;;29.52;;
68188;SDS011;55008;47.514;19.218;2022-11-20T07:42:06;56.67;;;28.65;;
68188;SDS011;55008;47.514;19.218;2022-11-20T07:44:40;55.67;;;28.90;;
68188;SDS011;55008;47.514;19.218;2022-11-20T07:47:12;55.28;;;28.17;;
68188;SDS011;55008;47.514;19.218;2022-11-20T07:49:41;54.17;;;27.15;;
68188;SDS011;55008;47.514;19.218;2022-11-20T07:52:10;52.45;;;27.25;;
68188;SDS011;55008;47.514;19.218;2022-11-20T07:54:38;55.17;;;28.80;;
68188;SDS011;55008;47.514;19.218;2022-11-20T07:57:07;48.72;;;27.23;;
68188;SDS011;55008;47.514;19.218;2022-11-20T07:59:36;52.85;;;26.65;;
68188;SDS011;55008;47.514;19.218;2022-11-20T08:02:09;46.95;;;25.48;;
68188;SDS011;55008;47.514;19.218;2022-11-20T08:04:38;53.45;;;28.52;;
68188;SDS011;55008;47.514;19.218;2022-11-20T08:07:06;53.00;;;28.90;;
68188;SDS011;55008;47.514;19.218;2022-11-20T08:09:35;52.55;;;28.08;;
68188;SDS011;55008;47.514;19.218;2022-11-20T08:12:04;50.55;;;27.25;;
68188;SDS011;55008;47.514;19.218;2022-11-20T08:14:58;56.03;;;29.10;;
68188;SDS011;55008;47.514;19.218;2022-11-20T08:17:30;51.70;;;27.40;;
68188;SDS011;55008;47.514;19.218;2022-11-20T08:20:01;51.47;;;26.52;;
68188;SDS011;55008;47.514;19.218;2022-11-20T08:22:30;52.58;;;27.63;;
68188;SDS011;55008;47.514;19.218;2022-11-20T08:24:58;50.13;;;27.42;;
68188;SDS011;55008;47.514;19.218;2022-11-20T08:27:27;52.65;;;29.52;;
68188;SDS011;55008;47.514;19.218;2022-11-20T08:29:56;53.13;;;29.10;;
68188;SDS011;55008;47.514;19.218;2022-11-20T08:32:25;50.85;;;27.23;;
68188;SDS011;55008;47.514;19.218;2022-11-20T08:35:00;47.63;;;27.00;;
68188;SDS011;55008;47.514;19.218;2022-11-20T08:37:28;46.58;;;26.15;;
68188;SDS011;55008;47.514;19.218;2022-11-20T08:39:56;48.30;;;26.88;;
68188;SDS011;55008;47.514;19.218;2022-11-20T08:42:26;47.42;;;27.60;;
68188;SDS011;55008;47.514;19.218;2022-11-20T08:44:54;44.30;;;24.55;;
68188;SDS011;55008;47.514;19.218;2022-11-20T08:47:23;48.85;;;28.35;;
68188;SDS011;55008;47.514;19.218;2022-11-20T08:50:01;46.03;;;25.50;;
68188;SDS011;55008;47.514;19.218;2022-11-20T08:52:30;47.58;;;26.42;;
68188;SDS011;55008;47.514;19.218;2022-11-20T08:55:08;47.33;;;26.10;;
68188;SDS011;55008;47.514;19.218;2022-11-20T08:57:36;48.03;;;26.42;;
68188;SDS011;55008;47.514;19.218;2022-11-20T09:00:09;52.05;;;27.27;;
68188;SDS011;55008;47.514;19.218;2022-11-20T09:02:41;45.80;;;25.67;;
68188;SDS011;55008;47.514;19.218;2022-11-20T09:05:12;46.83;;;25.90;;
68188;SDS011;55008;47.514;19.218;2022-11-20T09:07:46;49.10;;;25.10;;
68188;SDS011;55008;47.514;19.218;2022-11-20T09:10:15;43.40;;;24.42;;
68188;SDS011;55008;47.514;19.218;2022-11-20T09:12:51;44.65;;;25.08;;
68188;SDS011;55008;47.514;19.218;2022-11-20T09:15:22;50.13;;;23.98;;
68188;SDS011;55008;47.514;19.218;2022-11-20T09:17:51;42.30;;;22.95;;
68188;SDS011;55008;47.514;19.218;2022-11-20T09:20:21;44.70;;;24.17;;
68188;SDS011;55008;47.514;19.218;2022-11-20T09:22:50;40.97;;;22.23;;
68188;SDS011;55008;47.514;19.218;2022-11-20T09:25:18;41.60;;;23.20;;
68188;SDS011;55008;47.514;19.218;2022-11-20T09:27:47;41.97;;;23.27;;
68188;SDS011;55008;47.514;19.218;2022-11-20T09:30:16;41.25;;;22.95;;
68188;SDS011;55008;47.514;19.218;2022-11-20T09:32:44;43.42;;;24.17;;
68188;SDS011;55008;47.514;19.218;2022-11-20T09:35:13;43.63;;;23.02;;
68188;SDS011;55008;47.514;19.218;2022-11-20T09:37:43;43.95;;;24.08;;
68188;SDS011;55008;47.514;19.218;2022-11-20T09:40:17;46.05;;;24.25;;
68188;SDS011;55008;47.514;19.218;2022-11-20T09:42:50;41.47;;;23.35;;
68188;SDS011;55008;47.514;19.218;2022-11-20T09:45:24;47.22;;;24.25;;
68188;SDS011;55008;47.514;19.218;2022-11-20T09:48:05;42.17;;;22.92;;
68188;SDS011;55008;47.514;19.218;2022-11-20T09:50:46;45.10;;;23.98;;
68188;SDS011;55008;47.514;19.218;2022-11-20T09:53:24;43.20;;;23.23;;
68188;SDS011;55008;47.514;19.218;2022-11-20T09:56:02;44.25;;;23.38;;
68188;SDS011;55008;47.514;19.218;2022-11-20T09:58:32;42.70;;;23.80;;
68188;SDS011;55008;47.514;19.218;2022-11-20T10:01:07;43.03;;;24.50;;
68188;SDS011;55008;47.514;19.218;2022-11-20T10:03:46;49.38;;;26.67;;
68188;SDS011;55008;47.514;19.218;2022-11-20T10:06:21;46.67;;;24.88;;
68188;SDS011;55008;47.514;19.218;2022-11-20T10:09:01;44.70;;;24.85;;
68188;SDS011;55008;47.514;19.218;2022-11-20T10:11:39;44.90;;;25.20;;
68188;SDS011;55008;47.514;19.218;2022-11-20T10:14:16;43.85;;;23.83;;
68188;SDS011;55008;47.514;19.218;2022-11-20T10:17:00;45.10;;;24.52;;
68188;SDS011;55008;47.514;19.218;2022-11-20T10:19:36;40.20;;;22.85;;
68188;SDS011;55008;47.514;19.218;2022-11-20T10:22:18;40.95;;;22.17;;
68188;SDS011;55008;47.514;19.218;2022-11-20T10:25:00;43.70;;;24.45;;
68188;SDS011;55008;47.514;19.218;2022-11-20T10:27:37;40.85;;;22.75;;
68188;SDS011;55008;47.514;19.218;2022-11-20T10:30:17;38.90;;;21.45;;
68188;SDS011;55008;47.514;19.218;2022-11-20T10:32:49;38.75;;;21.55;;
68188;SDS011;55008;47.514;19.218;2022-11-20T10:35:21;41.53;;;22.15;;
68188;SDS011;55008;47.514;19.218;2022-11-20T10:37:55;39.63;;;22.15;;
68188;SDS011;55008;47.514;19.218;2022-11-20T10:40:29;40.17;;;21.38;;
68188;SDS011;55008;47.514;19.218;2022-11-20T10:43:06;41.63;;;22.05;;
68188;SDS011;55008;47.514;19.218;2022-11-20T10:45:53;36.47;;;20.60;;
68188;SDS011;55008;47.514;19.218;2022-11-20T10:48:27;36.03;;;20.45;;
68188;SDS011;55008;47.514;19.218;2022-11-20T10:51:01;38.53;;;21.95;;
68188;SDS011;55008;47.514;19.218;2022-11-20T10:53:40;36.40;;;19.73;;
68188;SDS011;55008;47.514;19.218;2022-11-20T10:56:17;39.38;;;21.73;;
68188;SDS011;55008;47.514;19.218;2022-11-20T10:58:58;38.95;;;20.63;;
68188;SDS011;55008;47.514;19.218;2022-11-20T11:01:39;37.25;;;20.60;;
68188;SDS011;55008;47.514;19.218;2022-11-20T11:04:14;39.72;;;21.92;;
68188;SDS011;55008;47.514;19.218;2022-11-20T11:09:19;37.97;;;21.85;;
68188;SDS011;55008;47.514;19.218;2022-11-20T11:11:56;38.63;;;21.33;;
68188;SDS011;55008;47.514;19.218;2022-11-20T11:14:41;38.78;;;21.48;;
68188;SDS011;55008;47.514;19.218;2022-11-20T11:17:18;40.15;;;22.33;;
68188;SDS011;55008;47.514;19.218;2022-11-20T11:20:03;40.13;;;22.00;;
68188;SDS011;55008;47.514;19.218;2022-11-20T11:22:45;38.97;;;21.30;;
68188;SDS011;55008;47.514;19.218;2022-11-20T11:25:22;38.65;;;21.73;;
68188;SDS011;55008;47.514;19.218;2022-11-20T11:27:55;38.70;;;20.98;;
68188;SDS011;55008;47.514;19.218;2022-11-20T11:30:26;38.97;;;21.45;;
68188;SDS011;55008;47.514;19.218;2022-11-20T11:33:03;38.28;;;21.00;;
68188;SDS011;55008;47.514;19.218;2022-11-20T11:35:38;40.28;;;21.48;;
68188;SDS011;55008;47.514;19.218;2022-11-20T11:40:52;38.70;;;21.80;;
68188;SDS011;55008;47.514;19.218;2022-11-20T11:43:24;39.92;;;22.08;;
68188;SDS011;55008;47.514;19.218;2022-11-20T11:46:22;37.72;;;21.58;;
68188;SDS011;55008;47.514;19.218;2022-11-20T11:48:58;37.97;;;21.30;;
68188;SDS011;55008;47.514;19.218;2022-11-20T11:51:29;38.28;;;21.15;;
68188;SDS011;55008;47.514;19.218;2022-11-20T11:54:03;38.10;;;20.92;;
68188;SDS011;55008;47.514;19.218;2022-11-20T11:56:42;37.67;;;20.88;;
68188;SDS011;55008;47.514;19.218;2022-11-20T11:59:15;40.22;;;21.90;;
68188;SDS011;55008;47.514;19.218;2022-11-20T12:01:51;41.40;;;20.73;;
68188;SDS011;55008;47.514;19.218;2022-11-20T12:04:27;37.78;;;21.48;;
68188;SDS011;55008;47.514;19.218;2022-11-20T12:07:12;40.45;;;22.60;;
68188;SDS011;55008;47.514;19.218;2022-11-20T12:10:13;40.70;;;21.90;;
68188;SDS011;55008;47.514;19.218;2022-11-20T12:12:45;41.15;;;23.38;;
68188;SDS011;55008;47.514;19.218;2022-11-20T12:15:23;43.00;;;23.20;;
68188;SDS011;55008;47.514;19.218;2022-11-20T12:17:56;41.33;;;22.67;;
68188;SDS011;55008;47.514;19.218;2022-11-20T12:20:26;40.10;;;21.95;;
68188;SDS011;55008;47.514;19.218;2022-11-20T12:23:04;44.05;;;22.42;;
68188;SDS011;55008;47.514;19.218;2022-11-20T12:25:43;49.83;;;24.52;;
68188;SDS011;55008;47.514;19.218;2022-11-20T12:28:26;42.05;;;23.08;;
68188;SDS011;55008;47.514;19.218;2022-11-20T12:31:18;42.05;;;21.58;;
68188;SDS011;55008;47.514;19.218;2022-11-20T12:34:07;41.33;;;22.67;;
68188;SDS011;55008;47.514;19.218;2022-11-20T12:36:48;45.15;;;22.80;;
68188;SDS011;55008;47.514;19.218;2022-11-20T12:45:27;40.38;;;22.65;;
68188;SDS011;55008;47.514;19.218;2022-11-20T12:48:12;40.03;;;23.05;;
68188;SDS011;55008;47.514;19.218;2022-11-20T12:51:04;42.88;;;23.73;;
68188;SDS011;55008;47.514;19.218;2022-11-20T12:53:50;40.83;;;22.75;;
68188;SDS011;55008;47.514;19.218;2022-11-20T12:56:32;42.50;;;23.23;;
68188;SDS011;55008;47.514;19.218;2022-11-20T12:59:15;41.83;;;22.17;;
68188;SDS011;55008;47.514;19.218;2022-11-20T13:01:58;39.65;;;21.33;;
68188;SDS011;55008;47.514;19.218;2022-11-20T13:04:48;41.67;;;22.42;;
68188;SDS011;55008;47.514;19.218;2022-11-20T13:07:29;40.72;;;22.02;;
68188;SDS011;55008;47.514;19.218;2022-11-20T13:09:59;41.67;;;22.98;;
68188;SDS011;55008;47.514;19.218;2022-11-20T13:12:29;41.53;;;23.17;;
68188;SDS011;55008;47.514;19.218;2022-11-20T13:15:03;41.67;;;22.50;;
68188;SDS011;55008;47.514;19.218;2022-11-20T13:17:40;39.08;;;22.65;;
68188;SDS011;55008;47.514;19.218;2022-11-20T13:20:20;46.28;;;25.02;;
68188;SDS011;55008;47.514;19.218;2022-11-20T13:22:51;47.10;;;26.00;;
68188;SDS011;55008;47.514;19.218;2022-11-20T13:25:24;45.25;;;24.52;;
68188;SDS011;55008;47.514;19.218;2022-11-20T13:27:54;47.03;;;25.73;;
68188;SDS011;55008;47.514;19.218;2022-11-20T13:30:26;44.83;;;24.92;;
68188;SDS011;55008;47.514;19.218;2022-11-20T13:32:56;48.50;;;26.95;;
68188;SDS011;55008;47.514;19.218;2022-11-20T13:38:00;46.20;;;24.65;;
68188;SDS011;55008;47.514;19.218;2022-11-20T13:40:31;44.35;;;23.73;;
68188;SDS011;55008;47.514;19.218;2022-11-20T13:43:04;46.35;;;25.23;;
68188;SDS011;55008;47.514;19.218;2022-11-20T13:45:53;45.03;;;23.67;;
68188;SDS011;55008;47.514;19.218;2022-11-20T13:48:24;45.08;;;24.15;;
68188;SDS011;55008;47.514;19.218;2022-11-20T13:51:03;49.53;;;25.05;;
68188;SDS011;55008;47.514;19.218;2022-11-20T13:53:45;47.13;;;25.77;;
68188;SDS011;55008;47.514;19.218;2022-11-20T13:56:26;49.67;;;25.40;;
68188;SDS011;55008;47.514;19.218;2022-11-20T13:59:05;47.67;;;25.63;;
68188;SDS011;55008;47.514;19.218;2022-11-20T14:01:41;47.40;;;25.70;;
68188;SDS011;55008;47.514;19.218;2022-11-20T14:04:14;49.25;;;26.05;;
68188;SDS011;55008;47.514;19.218;2022-11-20T14:06:51;49.05;;;25.17;;
68188;SDS011;55008;47.514;19.218;2022-11-20T14:09:27;47.60;;;24.00;;
68188;SDS011;55008;47.514;19.218;2022-11-20T14:11:59;46.83;;;25.42;;
68188;SDS011;55008;47.514;19.218;2022-11-20T14:14:30;45.58;;;24.80;;
68188;SDS011;55008;47.514;19.218;2022-11-20T14:17:07;46.92;;;24.90;;
68188;SDS011;55008;47.514;19.218;2022-11-20T14:19:44;48.25;;;24.83;;
68188;SDS011;55008;47.514;19.218;2022-11-20T14:22:22;46.20;;;24.52;;
68188;SDS011;55008;47.514;19.218;2022-11-20T14:25:00;49.75;;;25.52;;
68188;SDS011;55008;47.514;19.218;2022-11-20T14:27:33;48.80;;;24.65;;
68188;SDS011;55008;47.514;19.218;2022-11-20T14:30:06;48.10;;;25.50;;
68188;SDS011;55008;47.514;19.218;2022-11-20T14:32:42;48.67;;;25.85;;
68188;SDS011;55008;47.514;19.218;2022-11-20T14:35:18;47.38;;;25.60;;
68188;SDS011;55008;47.514;19.218;2022-11-20T14:37:56;50.08;;;26.30;;
68188;SDS011;55008;47.514;19.218;2022-11-20T14:40:28;51.97;;;27.08;;
68188;SDS011;55008;47.514;19.218;2022-11-20T14:42:58;54.42;;;27.35;;
68188;SDS011;55008;47.514;19.218;2022-11-20T14:45:28;54.17;;;27.08;;
68188;SDS011;55008;47.514;19.218;2022-11-20T14:47:57;60.30;;;30.00;;
68188;SDS011;55008;47.514;19.218;2022-11-20T14:50:28;66.32;;;31.83;;
68188;SDS011;55008;47.514;19.218;2022-11-20T14:52:59;71.35;;;33.53;;
68188;SDS011;55008;47.514;19.218;2022-11-20T14:55:28;56.63;;;28.77;;